sensor_id;sensor_type;location;lat;lon;timestamp;P1;durP1;ratioP1;P2;durP2;ratioP2
5022;SDS011;2530;47.990;7.866;2022-12-29T00:02:07;1.70;;;0.80;;
5022;SDS011;2530;47.990;7.866;2022-12-29T00:04:32;1.30;;;0.90;;
5022;SDS011;2530;47.990;7.866;2022-12-29T00:06:58;1.30;;;1.00;;
5022;SDS011;2530;47.990;7.866;2022-12-29T00:09:24;2.33;;;1.20;;
5022;SDS011;2530;47.990;7.866;2022-12-29T00:11:50;1.42;;;0.90;;
5022;SDS011;2530;47.990;7.866;2022-12-29T00:14:16;2.63;;;0.90;;
5022;SDS011;2530;47.990;7.866;2022-12-29T00:17:00;1.90;;;1.20;;
5022;SDS011;2530;47.990;7.866;2022-12-29T00:19:25;2.40;;;1.00;;
5022;SDS011;2530;47.990;7.866;2022-12-29T00:22:11;1.73;;;0.90;;
5022;SDS011;2530;47.990;7.866;2022-12-29T00:24:56;1.30;;;0.90;;
5022;SDS011;2530;47.990;7.866;2022-12-29T00:27:34;3.17;;;0.70;;
5022;SDS011;2530;47.990;7.866;2022-12-29T00:30:22;3.58;;;1.00;;
5022;SDS011;2530;47.990;7.866;2022-12-29T00:33:16;2.67;;;1.00;;
5022;SDS011;2530;47.990;7.866;2022-12-29T00:36:07;2.53;;;1.00;;
5022;SDS011;2530;47.990;7.866;2022-12-29T00:38:35;1.00;;;0.90;;
5022;SDS011;2530;47.990;7.866;2022-12-29T00:41:23;1.17;;;0.93;;
5022;SDS011;2530;47.990;7.866;2022-12-29T00:44:07;1.00;;;0.60;;
5022;SDS011;2530;47.990;7.866;2022-12-29T00:46:38;1.95;;;0.65;;
5022;SDS011;2530;47.990;7.866;2022-12-29T00:49:05;0.90;;;0.60;;
5022;SDS011;2530;47.990;7.866;2022-12-29T00:51:50;1.00;;;0.90;;
5022;SDS011;2530;47.990;7.866;2022-12-29T00:54:16;1.40;;;0.70;;
5022;SDS011;2530;47.990;7.866;2022-12-29T00:56:42;2.28;;;0.80;;
5022;SDS011;2530;47.990;7.866;2022-12-29T00:59:09;0.97;;;0.60;;
5022;SDS011;2530;47.990;7.866;2022-12-29T01:01:35;2.60;;;0.90;;
5022;SDS011;2530;47.990;7.866;2022-12-29T01:04:02;2.45;;;0.90;;
5022;SDS011;2530;47.990;7.866;2022-12-29T01:06:28;1.70;;;0.80;;
5022;SDS011;2530;47.990;7.866;2022-12-29T01:08:54;1.40;;;0.90;;
5022;SDS011;2530;47.990;7.866;2022-12-29T01:11:38;2.20;;;0.80;;
5022;SDS011;2530;47.990;7.866;2022-12-29T01:14:04;2.63;;;0.80;;
5022;SDS011;2530;47.990;7.866;2022-12-29T01:16:30;2.22;;;0.90;;
5022;SDS011;2530;47.990;7.866;2022-12-29T01:18:56;2.00;;;0.90;;
5022;SDS011;2530;47.990;7.866;2022-12-29T01:21:21;1.50;;;0.70;;
5022;SDS011;2530;47.990;7.866;2022-12-29T01:23:47;2.53;;;0.77;;
5022;SDS011;2530;47.990;7.866;2022-12-29T01:26:13;1.95;;;0.80;;
5022;SDS011;2530;47.990;7.866;2022-12-29T01:28:40;1.65;;;0.80;;
5022;SDS011;2530;47.990;7.866;2022-12-29T01:31:07;1.80;;;1.08;;
5022;SDS011;2530;47.990;7.866;2022-12-29T01:33:37;3.80;;;0.80;;
5022;SDS011;2530;47.990;7.866;2022-12-29T01:36:11;2.35;;;0.80;;
5022;SDS011;2530;47.990;7.866;2022-12-29T01:38:38;1.77;;;1.00;;
5022;SDS011;2530;47.990;7.866;2022-12-29T01:41:05;1.38;;;0.80;;
5022;SDS011;2530;47.990;7.866;2022-12-29T01:43:47;2.05;;;1.00;;
5022;SDS011;2530;47.990;7.866;2022-12-29T01:46:17;1.30;;;0.80;;
5022;SDS011;2530;47.990;7.866;2022-12-29T01:48:57;1.50;;;0.80;;
5022;SDS011;2530;47.990;7.866;2022-12-29T01:51:40;2.90;;;1.00;;
5022;SDS011;2530;47.990;7.866;2022-12-29T01:54:18;1.30;;;1.00;;
5022;SDS011;2530;47.990;7.866;2022-12-29T01:56:56;1.38;;;1.00;;
5022;SDS011;2530;47.990;7.866;2022-12-29T01:59:24;3.05;;;1.10;;
5022;SDS011;2530;47.990;7.866;2022-12-29T02:01:54;1.98;;;0.80;;
5022;SDS011;2530;47.990;7.866;2022-12-29T02:04:19;3.03;;;0.90;;
5022;SDS011;2530;47.990;7.866;2022-12-29T02:06:50;1.75;;;1.00;;
5022;SDS011;2530;47.990;7.866;2022-12-29T02:09:20;1.85;;;1.20;;
5022;SDS011;2530;47.990;7.866;2022-12-29T02:11:46;1.20;;;0.90;;
5022;SDS011;2530;47.990;7.866;2022-12-29T02:14:13;2.87;;;1.10;;
5022;SDS011;2530;47.990;7.866;2022-12-29T02:34:03;2.00;;;0.90;;
5022;SDS011;2530;47.990;7.866;2022-12-29T02:36:45;1.35;;;0.90;;
5022;SDS011;2530;47.990;7.866;2022-12-29T02:47:37;2.40;;;1.20;;
5022;SDS011;2530;47.990;7.866;2022-12-29T02:50:18;2.20;;;1.10;;
5022;SDS011;2530;47.990;7.866;2022-12-29T02:52:54;2.00;;;1.10;;
5022;SDS011;2530;47.990;7.866;2022-12-29T02:55:22;2.08;;;1.27;;
5022;SDS011;2530;47.990;7.866;2022-12-29T02:57:47;1.77;;;1.20;;
5022;SDS011;2530;47.990;7.866;2022-12-29T03:00:16;3.67;;;1.00;;
5022;SDS011;2530;47.990;7.866;2022-12-29T03:02:46;2.08;;;1.50;;
5022;SDS011;2530;47.990;7.866;2022-12-29T03:07:52;2.73;;;1.40;;
5022;SDS011;2530;47.990;7.866;2022-12-29T03:16:21;2.00;;;1.00;;
5022;SDS011;2530;47.990;7.866;2022-12-29T03:24:22;1.40;;;1.20;;
5022;SDS011;2530;47.990;7.866;2022-12-29T03:26:52;1.75;;;1.27;;
5022;SDS011;2530;47.990;7.866;2022-12-29T03:29:21;2.45;;;1.50;;
5022;SDS011;2530;47.990;7.866;2022-12-29T03:31:48;1.67;;;1.40;;
5022;SDS011;2530;47.990;7.866;2022-12-29T03:34:16;2.65;;;1.45;;
5022;SDS011;2530;47.990;7.866;2022-12-29T03:36:49;2.83;;;1.50;;
5022;SDS011;2530;47.990;7.866;2022-12-29T03:39:25;1.70;;;1.60;;
5022;SDS011;2530;47.990;7.866;2022-12-29T03:41:54;2.50;;;1.67;;
5022;SDS011;2530;47.990;7.866;2022-12-29T03:44:31;2.38;;;1.65;;
5022;SDS011;2530;47.990;7.866;2022-12-29T03:46:58;2.60;;;1.52;;
5022;SDS011;2530;47.990;7.866;2022-12-29T03:49:23;4.83;;;1.90;;
5022;SDS011;2530;47.990;7.866;2022-12-29T03:51:49;2.25;;;1.60;;
5022;SDS011;2530;47.990;7.866;2022-12-29T03:54:14;2.40;;;1.80;;
5022;SDS011;2530;47.990;7.866;2022-12-29T03:56:40;1.70;;;1.53;;
5022;SDS011;2530;47.990;7.866;2022-12-29T03:59:05;2.20;;;1.60;;
5022;SDS011;2530;47.990;7.866;2022-12-29T04:01:31;1.73;;;1.38;;
5022;SDS011;2530;47.990;7.866;2022-12-29T04:03:56;1.70;;;1.30;;
5022;SDS011;2530;47.990;7.866;2022-12-29T04:06:22;3.27;;;1.50;;
5022;SDS011;2530;47.990;7.866;2022-12-29T04:08:48;2.58;;;1.55;;
5022;SDS011;2530;47.990;7.866;2022-12-29T04:11:14;4.10;;;1.70;;
5022;SDS011;2530;47.990;7.866;2022-12-29T04:13:39;1.70;;;1.40;;
5022;SDS011;2530;47.990;7.866;2022-12-29T04:16:05;1.70;;;1.60;;
5022;SDS011;2530;47.990;7.866;2022-12-29T04:18:31;3.20;;;1.70;;
5022;SDS011;2530;47.990;7.866;2022-12-29T04:20:57;2.97;;;1.30;;
5022;SDS011;2530;47.990;7.866;2022-12-29T04:23:29;3.60;;;1.70;;
5022;SDS011;2530;47.990;7.866;2022-12-29T04:25:57;3.70;;;1.90;;
5022;SDS011;2530;47.990;7.866;2022-12-29T04:28:22;3.10;;;2.13;;
5022;SDS011;2530;47.990;7.866;2022-12-29T04:30:48;3.97;;;1.73;;
5022;SDS011;2530;47.990;7.866;2022-12-29T04:33:13;3.92;;;1.85;;
5022;SDS011;2530;47.990;7.866;2022-12-29T04:35:41;3.25;;;1.70;;
5022;SDS011;2530;47.990;7.866;2022-12-29T04:38:07;4.13;;;1.80;;
5022;SDS011;2530;47.990;7.866;2022-12-29T04:40:33;2.53;;;1.80;;
5022;SDS011;2530;47.990;7.866;2022-12-29T04:42:59;3.07;;;1.50;;
5022;SDS011;2530;47.990;7.866;2022-12-29T04:45:24;2.67;;;1.30;;
5022;SDS011;2530;47.990;7.866;2022-12-29T04:47:50;2.70;;;1.58;;
5022;SDS011;2530;47.990;7.866;2022-12-29T04:50:15;2.03;;;1.37;;
5022;SDS011;2530;47.990;7.866;2022-12-29T04:52:41;2.63;;;1.83;;
5022;SDS011;2530;47.990;7.866;2022-12-29T04:55:06;1.95;;;1.20;;
5022;SDS011;2530;47.990;7.866;2022-12-29T04:57:32;2.63;;;1.20;;
5022;SDS011;2530;47.990;7.866;2022-12-29T04:59:58;1.83;;;1.20;;
5022;SDS011;2530;47.990;7.866;2022-12-29T05:02:26;3.50;;;1.40;;
5022;SDS011;2530;47.990;7.866;2022-12-29T05:04:52;1.50;;;1.40;;
5022;SDS011;2530;47.990;7.866;2022-12-29T05:07:18;2.30;;;1.00;;
5022;SDS011;2530;47.990;7.866;2022-12-29T05:09:47;1.57;;;1.03;;
5022;SDS011;2530;47.990;7.866;2022-12-29T05:12:12;1.90;;;1.00;;
5022;SDS011;2530;47.990;7.866;2022-12-29T05:14:38;1.10;;;1.00;;
5022;SDS011;2530;47.990;7.866;2022-12-29T05:17:03;3.50;;;1.10;;
5022;SDS011;2530;47.990;7.866;2022-12-29T05:19:29;1.80;;;1.25;;
5022;SDS011;2530;47.990;7.866;2022-12-29T05:21:54;1.40;;;0.80;;
5022;SDS011;2530;47.990;7.866;2022-12-29T05:24:20;1.33;;;1.00;;
5022;SDS011;2530;47.990;7.866;2022-12-29T05:26:49;1.85;;;0.90;;
5022;SDS011;2530;47.990;7.866;2022-12-29T05:29:14;1.30;;;0.80;;
5022;SDS011;2530;47.990;7.866;2022-12-29T05:31:40;1.60;;;0.80;;
5022;SDS011;2530;47.990;7.866;2022-12-29T05:34:05;1.57;;;1.07;;
5022;SDS011;2530;47.990;7.866;2022-12-29T05:36:31;1.60;;;0.97;;
5022;SDS011;2530;47.990;7.866;2022-12-29T05:38:56;1.40;;;0.88;;
5022;SDS011;2530;47.990;7.866;2022-12-29T05:41:22;1.90;;;0.80;;
5022;SDS011;2530;47.990;7.866;2022-12-29T05:43:47;2.50;;;1.00;;
5022;SDS011;2530;47.990;7.866;2022-12-29T05:46:16;2.20;;;0.90;;
5022;SDS011;2530;47.990;7.866;2022-12-29T05:48:41;1.58;;;0.80;;
5022;SDS011;2530;47.990;7.866;2022-12-29T05:51:07;1.40;;;0.90;;
5022;SDS011;2530;47.990;7.866;2022-12-29T05:53:32;2.17;;;1.10;;
5022;SDS011;2530;47.990;7.866;2022-12-29T05:55:58;2.30;;;0.80;;
5022;SDS011;2530;47.990;7.866;2022-12-29T05:58:23;2.20;;;1.40;;
5022;SDS011;2530;47.990;7.866;2022-12-29T06:00:49;1.00;;;0.80;;
5022;SDS011;2530;47.990;7.866;2022-12-29T06:03:15;1.60;;;0.90;;
5022;SDS011;2530;47.990;7.866;2022-12-29T06:05:40;2.40;;;1.20;;
5022;SDS011;2530;47.990;7.866;2022-12-29T06:08:06;3.22;;;0.80;;
5022;SDS011;2530;47.990;7.866;2022-12-29T06:10:31;1.00;;;0.80;;
5022;SDS011;2530;47.990;7.866;2022-12-29T06:12:57;1.30;;;0.80;;
5022;SDS011;2530;47.990;7.866;2022-12-29T06:15:22;2.20;;;0.90;;
5022;SDS011;2530;47.990;7.866;2022-12-29T06:17:48;1.70;;;0.70;;
5022;SDS011;2530;47.990;7.866;2022-12-29T06:20:14;3.20;;;1.20;;
5022;SDS011;2530;47.990;7.866;2022-12-29T06:22:39;2.00;;;1.00;;
5022;SDS011;2530;47.990;7.866;2022-12-29T06:25:05;2.67;;;0.98;;
5022;SDS011;2530;47.990;7.866;2022-12-29T06:27:31;3.13;;;1.00;;
5022;SDS011;2530;47.990;7.866;2022-12-29T06:29:57;1.00;;;0.70;;
5022;SDS011;2530;47.990;7.866;2022-12-29T06:32:22;1.23;;;0.77;;
5022;SDS011;2530;47.990;7.866;2022-12-29T06:34:48;3.10;;;1.00;;
5022;SDS011;2530;47.990;7.866;2022-12-29T06:37:14;1.20;;;1.00;;
5022;SDS011;2530;47.990;7.866;2022-12-29T06:39:39;1.67;;;0.90;;
5022;SDS011;2530;47.990;7.866;2022-12-29T06:42:05;1.50;;;0.70;;
5022;SDS011;2530;47.990;7.866;2022-12-29T06:44:31;1.23;;;0.93;;
5022;SDS011;2530;47.990;7.866;2022-12-29T06:46:56;1.50;;;0.97;;
5022;SDS011;2530;47.990;7.866;2022-12-29T06:49:22;0.83;;;0.83;;
5022;SDS011;2530;47.990;7.866;2022-12-29T06:51:48;1.38;;;0.80;;
5022;SDS011;2530;47.990;7.866;2022-12-29T06:54:14;1.20;;;0.80;;
5022;SDS011;2530;47.990;7.866;2022-12-29T06:56:39;0.80;;;0.70;;
5022;SDS011;2530;47.990;7.866;2022-12-29T06:59:05;1.20;;;0.90;;
5022;SDS011;2530;47.990;7.866;2022-12-29T07:01:30;1.17;;;1.00;;
5022;SDS011;2530;47.990;7.866;2022-12-29T07:03:56;1.13;;;0.87;;
5022;SDS011;2530;47.990;7.866;2022-12-29T07:06:22;1.30;;;0.90;;
5022;SDS011;2530;47.990;7.866;2022-12-29T07:08:47;2.40;;;0.87;;
5022;SDS011;2530;47.990;7.866;2022-12-29T07:11:13;2.78;;;0.70;;
5022;SDS011;2530;47.990;7.866;2022-12-29T07:13:38;2.55;;;0.98;;
5022;SDS011;2530;47.990;7.866;2022-12-29T07:16:07;2.30;;;0.83;;
5022;SDS011;2530;47.990;7.866;2022-12-29T07:18:34;1.40;;;1.00;;
5022;SDS011;2530;47.990;7.866;2022-12-29T07:21:00;1.73;;;0.90;;
5022;SDS011;2530;47.990;7.866;2022-12-29T07:23:26;1.10;;;0.60;;
5022;SDS011;2530;47.990;7.866;2022-12-29T07:26:05;1.60;;;1.10;;
5022;SDS011;2530;47.990;7.866;2022-12-29T07:28:32;1.40;;;0.80;;
5022;SDS011;2530;47.990;7.866;2022-12-29T07:30:58;2.30;;;0.80;;
5022;SDS011;2530;47.990;7.866;2022-12-29T07:33:24;1.00;;;0.70;;
5022;SDS011;2530;47.990;7.866;2022-12-29T07:35:50;1.38;;;0.80;;
5022;SDS011;2530;47.990;7.866;2022-12-29T07:38:16;1.15;;;0.80;;
5022;SDS011;2530;47.990;7.866;2022-12-29T07:40:42;1.20;;;0.90;;
5022;SDS011;2530;47.990;7.866;2022-12-29T07:43:08;1.10;;;0.77;;
5022;SDS011;2530;47.990;7.866;2022-12-29T07:45:33;2.92;;;0.90;;
5022;SDS011;2530;47.990;7.866;2022-12-29T07:47:59;1.10;;;0.90;;
5022;SDS011;2530;47.990;7.866;2022-12-29T07:50:25;1.13;;;0.88;;
5022;SDS011;2530;47.990;7.866;2022-12-29T07:52:50;1.80;;;0.90;;
5022;SDS011;2530;47.990;7.866;2022-12-29T07:55:16;1.70;;;0.70;;
5022;SDS011;2530;47.990;7.866;2022-12-29T07:57:41;1.83;;;0.77;;
5022;SDS011;2530;47.990;7.866;2022-12-29T08:00:07;1.05;;;0.90;;
5022;SDS011;2530;47.990;7.866;2022-12-29T08:02:34;1.63;;;0.90;;
5022;SDS011;2530;47.990;7.866;2022-12-29T08:05:00;1.30;;;0.88;;
5022;SDS011;2530;47.990;7.866;2022-12-29T08:07:25;2.25;;;1.00;;
5022;SDS011;2530;47.990;7.866;2022-12-29T08:09:51;1.33;;;0.73;;
5022;SDS011;2530;47.990;7.866;2022-12-29T08:12:16;1.10;;;0.80;;
5022;SDS011;2530;47.990;7.866;2022-12-29T08:14:42;1.45;;;0.85;;
5022;SDS011;2530;47.990;7.866;2022-12-29T08:17:08;3.90;;;0.80;;
5022;SDS011;2530;47.990;7.866;2022-12-29T08:19:34;2.28;;;1.00;;
5022;SDS011;2530;47.990;7.866;2022-12-29T08:21:59;1.85;;;1.00;;
5022;SDS011;2530;47.990;7.866;2022-12-29T08:24:25;1.50;;;0.90;;
5022;SDS011;2530;47.990;7.866;2022-12-29T08:26:50;1.60;;;0.80;;
5022;SDS011;2530;47.990;7.866;2022-12-29T08:29:16;1.33;;;0.77;;
5022;SDS011;2530;47.990;7.866;2022-12-29T08:31:41;2.15;;;1.00;;
5022;SDS011;2530;47.990;7.866;2022-12-29T08:34:07;1.40;;;0.90;;
5022;SDS011;2530;47.990;7.866;2022-12-29T08:36:33;1.38;;;0.90;;
5022;SDS011;2530;47.990;7.866;2022-12-29T08:38:58;1.75;;;1.00;;
5022;SDS011;2530;47.990;7.866;2022-12-29T08:41:24;1.57;;;0.70;;
5022;SDS011;2530;47.990;7.866;2022-12-29T08:43:49;1.63;;;1.00;;
5022;SDS011;2530;47.990;7.866;2022-12-29T08:46:15;2.50;;;0.90;;
5022;SDS011;2530;47.990;7.866;2022-12-29T08:48:41;2.10;;;1.00;;
5022;SDS011;2530;47.990;7.866;2022-12-29T08:51:07;1.60;;;1.10;;
5022;SDS011;2530;47.990;7.866;2022-12-29T08:53:33;3.10;;;0.88;;
5022;SDS011;2530;47.990;7.866;2022-12-29T08:55:59;1.60;;;1.00;;
5022;SDS011;2530;47.990;7.866;2022-12-29T08:58:26;1.95;;;0.93;;
5022;SDS011;2530;47.990;7.866;2022-12-29T09:00:53;1.67;;;1.10;;
5022;SDS011;2530;47.990;7.866;2022-12-29T09:03:19;2.35;;;0.80;;
5022;SDS011;2530;47.990;7.866;2022-12-29T09:05:47;1.20;;;1.05;;
5022;SDS011;2530;47.990;7.866;2022-12-29T09:08:14;2.80;;;0.82;;
5022;SDS011;2530;47.990;7.866;2022-12-29T09:10:40;1.20;;;0.90;;
5022;SDS011;2530;47.990;7.866;2022-12-29T09:13:05;1.20;;;1.00;;
5022;SDS011;2530;47.990;7.866;2022-12-29T09:15:30;1.50;;;0.90;;
5022;SDS011;2530;47.990;7.866;2022-12-29T09:17:56;2.80;;;1.00;;
5022;SDS011;2530;47.990;7.866;2022-12-29T09:20:21;1.50;;;1.00;;
5022;SDS011;2530;47.990;7.866;2022-12-29T09:22:47;1.00;;;0.90;;
5022;SDS011;2530;47.990;7.866;2022-12-29T09:25:14;2.50;;;1.20;;
5022;SDS011;2530;47.990;7.866;2022-12-29T09:27:39;1.80;;;1.20;;
5022;SDS011;2530;47.990;7.866;2022-12-29T09:30:06;2.23;;;1.07;;
5022;SDS011;2530;47.990;7.866;2022-12-29T09:32:33;2.20;;;1.30;;
5022;SDS011;2530;47.990;7.866;2022-12-29T09:34:59;1.42;;;0.93;;
5022;SDS011;2530;47.990;7.866;2022-12-29T09:37:25;1.80;;;1.10;;
5022;SDS011;2530;47.990;7.866;2022-12-29T09:39:50;2.00;;;1.50;;
5022;SDS011;2530;47.990;7.866;2022-12-29T09:42:19;1.97;;;1.30;;
5022;SDS011;2530;47.990;7.866;2022-12-29T09:45:00;2.03;;;1.30;;
5022;SDS011;2530;47.990;7.866;2022-12-29T09:47:43;3.03;;;1.60;;
5022;SDS011;2530;47.990;7.866;2022-12-29T09:50:24;1.98;;;1.80;;
5022;SDS011;2530;47.990;7.866;2022-12-29T09:53:03;1.95;;;1.60;;
5022;SDS011;2530;47.990;7.866;2022-12-29T09:55:38;3.38;;;1.50;;
5022;SDS011;2530;47.990;7.866;2022-12-29T09:58:10;2.45;;;1.20;;
5022;SDS011;2530;47.990;7.866;2022-12-29T10:01:04;2.47;;;1.30;;
5022;SDS011;2530;47.990;7.866;2022-12-29T10:03:51;2.10;;;1.40;;
5022;SDS011;2530;47.990;7.866;2022-12-29T10:06:39;3.90;;;1.70;;
5022;SDS011;2530;47.990;7.866;2022-12-29T10:09:25;2.10;;;1.40;;
5022;SDS011;2530;47.990;7.866;2022-12-29T10:15:11;1.87;;;1.53;;
5022;SDS011;2530;47.990;7.866;2022-12-29T10:20:31;1.80;;;1.30;;
5022;SDS011;2530;47.990;7.866;2022-12-29T10:25:45;2.07;;;1.30;;
5022;SDS011;2530;47.990;7.866;2022-12-29T10:28:17;1.70;;;1.30;;
5022;SDS011;2530;47.990;7.866;2022-12-29T10:30:47;2.00;;;1.30;;
5022;SDS011;2530;47.990;7.866;2022-12-29T10:33:15;1.73;;;1.63;;
5022;SDS011;2530;47.990;7.866;2022-12-29T10:35:44;2.65;;;1.40;;
5022;SDS011;2530;47.990;7.866;2022-12-29T10:43:28;3.10;;;1.50;;
5022;SDS011;2530;47.990;7.866;2022-12-29T10:45:54;1.80;;;1.60;;
5022;SDS011;2530;47.990;7.866;2022-12-29T10:48:33;1.58;;;1.48;;
5022;SDS011;2530;47.990;7.866;2022-12-29T10:51:01;2.25;;;1.80;;
5022;SDS011;2530;47.990;7.866;2022-12-29T10:53:51;2.40;;;1.90;;
5022;SDS011;2530;47.990;7.866;2022-12-29T10:56:21;2.88;;;1.73;;
5022;SDS011;2530;47.990;7.866;2022-12-29T10:59:00;4.23;;;1.73;;
5022;SDS011;2530;47.990;7.866;2022-12-29T11:01:34;2.50;;;1.70;;
5022;SDS011;2530;47.990;7.866;2022-12-29T11:04:26;3.00;;;1.50;;
5022;SDS011;2530;47.990;7.866;2022-12-29T11:06:58;1.38;;;1.20;;
5022;SDS011;2530;47.990;7.866;2022-12-29T11:09:27;1.75;;;1.33;;
5022;SDS011;2530;47.990;7.866;2022-12-29T11:11:54;1.52;;;1.20;;
5022;SDS011;2530;47.990;7.866;2022-12-29T11:14:30;4.13;;;1.67;;
5022;SDS011;2530;47.990;7.866;2022-12-29T11:16:57;2.67;;;1.65;;
5022;SDS011;2530;47.990;7.866;2022-12-29T11:19:31;2.13;;;1.40;;
5022;SDS011;2530;47.990;7.866;2022-12-29T11:22:19;1.47;;;1.23;;
5022;SDS011;2530;47.990;7.866;2022-12-29T11:24:47;2.20;;;1.40;;
5022;SDS011;2530;47.990;7.866;2022-12-29T11:27:18;2.45;;;1.30;;
5022;SDS011;2530;47.990;7.866;2022-12-29T11:29:47;1.90;;;1.40;;
5022;SDS011;2530;47.990;7.866;2022-12-29T11:32:20;2.20;;;1.20;;
5022;SDS011;2530;47.990;7.866;2022-12-29T11:34:50;1.70;;;1.23;;
5022;SDS011;2530;47.990;7.866;2022-12-29T11:37:18;2.20;;;1.27;;
5022;SDS011;2530;47.990;7.866;2022-12-29T11:40:05;1.58;;;1.17;;
5022;SDS011;2530;47.990;7.866;2022-12-29T11:42:51;1.80;;;0.90;;
5022;SDS011;2530;47.990;7.866;2022-12-29T11:45:22;1.73;;;1.10;;
5022;SDS011;2530;47.990;7.866;2022-12-29T11:47:58;2.65;;;1.00;;
5022;SDS011;2530;47.990;7.866;2022-12-29T11:50:40;2.17;;;1.00;;
5022;SDS011;2530;47.990;7.866;2022-12-29T11:53:23;2.38;;;1.02;;
5022;SDS011;2530;47.990;7.866;2022-12-29T11:55:54;2.17;;;1.10;;
5022;SDS011;2530;47.990;7.866;2022-12-29T11:58:29;1.00;;;0.80;;
5022;SDS011;2530;47.990;7.866;2022-12-29T12:00:57;2.08;;;1.05;;
5022;SDS011;2530;47.990;7.866;2022-12-29T12:03:31;1.65;;;1.20;;
5022;SDS011;2530;47.990;7.866;2022-12-29T12:06:02;2.20;;;1.20;;
5022;SDS011;2530;47.990;7.866;2022-12-29T12:08:36;2.37;;;1.00;;
5022;SDS011;2530;47.990;7.866;2022-12-29T12:11:19;1.50;;;1.00;;
5022;SDS011;2530;47.990;7.866;2022-12-29T12:13:56;2.73;;;1.30;;
5022;SDS011;2530;47.990;7.866;2022-12-29T12:16:50;1.92;;;1.00;;
5022;SDS011;2530;47.990;7.866;2022-12-29T12:19:22;1.20;;;0.88;;
5022;SDS011;2530;47.990;7.866;2022-12-29T12:22:10;2.28;;;1.17;;
5022;SDS011;2530;47.990;7.866;2022-12-29T12:24:49;1.30;;;1.00;;
5022;SDS011;2530;47.990;7.866;2022-12-29T12:29:52;2.53;;;1.20;;
5022;SDS011;2530;47.990;7.866;2022-12-29T12:32:26;1.35;;;1.00;;
5022;SDS011;2530;47.990;7.866;2022-12-29T12:35:12;1.60;;;1.40;;
5022;SDS011;2530;47.990;7.866;2022-12-29T12:46:01;2.20;;;1.20;;
5022;SDS011;2530;47.990;7.866;2022-12-29T12:49:02;1.75;;;1.20;;
5022;SDS011;2530;47.990;7.866;2022-12-29T12:54:51;1.80;;;1.10;;
5022;SDS011;2530;47.990;7.866;2022-12-29T12:57:36;1.50;;;1.00;;
5022;SDS011;2530;47.990;7.866;2022-12-29T13:00:24;2.40;;;1.05;;
5022;SDS011;2530;47.990;7.866;2022-12-29T13:02:59;2.22;;;1.35;;
5022;SDS011;2530;47.990;7.866;2022-12-29T13:08:37;2.38;;;1.55;;
5022;SDS011;2530;47.990;7.866;2022-12-29T13:19:22;3.22;;;1.40;;
5022;SDS011;2530;47.990;7.866;2022-12-29T13:22:12;3.55;;;1.85;;
5022;SDS011;2530;47.990;7.866;2022-12-29T13:27:23;3.03;;;1.40;;
5022;SDS011;2530;47.990;7.866;2022-12-29T13:37:55;2.90;;;1.50;;
5022;SDS011;2530;47.990;7.866;2022-12-29T13:40:28;3.38;;;1.40;;
5022;SDS011;2530;47.990;7.866;2022-12-29T13:42:59;1.90;;;1.40;;
5022;SDS011;2530;47.990;7.866;2022-12-29T13:45:26;2.35;;;1.30;;
5022;SDS011;2530;47.990;7.866;2022-12-29T13:47:58;2.35;;;1.60;;
5022;SDS011;2530;47.990;7.866;2022-12-29T13:50:29;2.77;;;1.53;;
5022;SDS011;2530;47.990;7.866;2022-12-29T13:53:04;2.67;;;1.70;;
5022;SDS011;2530;47.990;7.866;2022-12-29T13:56:07;3.00;;;1.70;;
5022;SDS011;2530;47.990;7.866;2022-12-29T13:59:02;3.10;;;1.80;;
5022;SDS011;2530;47.990;7.866;2022-12-29T14:01:56;2.35;;;1.52;;
5022;SDS011;2530;47.990;7.866;2022-12-29T14:04:55;3.10;;;2.20;;
5022;SDS011;2530;47.990;7.866;2022-12-29T14:07:23;2.20;;;1.52;;
5022;SDS011;2530;47.990;7.866;2022-12-29T14:09:50;2.50;;;1.70;;
5022;SDS011;2530;47.990;7.866;2022-12-29T14:12:36;2.90;;;1.60;;
5022;SDS011;2530;47.990;7.866;2022-12-29T14:17:36;1.73;;;1.50;;
5022;SDS011;2530;47.990;7.866;2022-12-29T14:20:03;2.20;;;1.60;;
5022;SDS011;2530;47.990;7.866;2022-12-29T14:22:32;2.30;;;1.70;;
5022;SDS011;2530;47.990;7.866;2022-12-29T14:24:58;3.17;;;1.77;;
5022;SDS011;2530;47.990;7.866;2022-12-29T14:29:52;3.42;;;1.80;;
5022;SDS011;2530;47.990;7.866;2022-12-29T14:34:49;1.75;;;1.60;;
5022;SDS011;2530;47.990;7.866;2022-12-29T14:37:26;2.38;;;1.40;;
5022;SDS011;2530;47.990;7.866;2022-12-29T14:42:48;2.10;;;1.50;;
5022;SDS011;2530;47.990;7.866;2022-12-29T14:47:48;2.35;;;1.60;;
5022;SDS011;2530;47.990;7.866;2022-12-29T14:58:05;2.00;;;1.60;;
5022;SDS011;2530;47.990;7.866;2022-12-29T15:00:37;1.52;;;1.42;;
5022;SDS011;2530;47.990;7.866;2022-12-29T15:03:10;2.28;;;1.67;;
5022;SDS011;2530;47.990;7.866;2022-12-29T15:06:23;2.78;;;1.52;;
5022;SDS011;2530;47.990;7.866;2022-12-29T15:08:42;2.53;;;1.65;;
5022;SDS011;2530;47.990;7.866;2022-12-29T15:11:15;2.20;;;1.40;;
5022;SDS011;2530;47.990;7.866;2022-12-29T15:13:45;5.20;;;1.90;;
5022;SDS011;2530;47.990;7.866;2022-12-29T15:16:29;1.98;;;1.60;;
5022;SDS011;2530;47.990;7.866;2022-12-29T15:18:56;2.40;;;1.80;;
5022;SDS011;2530;47.990;7.866;2022-12-29T15:21:23;2.00;;;1.70;;
5022;SDS011;2530;47.990;7.866;2022-12-29T15:23:54;2.00;;;1.60;;
5022;SDS011;2530;47.990;7.866;2022-12-29T15:26:20;3.70;;;1.70;;
5022;SDS011;2530;47.990;7.866;2022-12-29T15:28:47;3.08;;;1.90;;
5022;SDS011;2530;47.990;7.866;2022-12-29T15:33:46;2.83;;;1.70;;
5022;SDS011;2530;47.990;7.866;2022-12-29T15:36:17;3.30;;;2.00;;
5022;SDS011;2530;47.990;7.866;2022-12-29T15:38:48;1.80;;;1.30;;
5022;SDS011;2530;47.990;7.866;2022-12-29T15:44:20;2.75;;;1.73;;
5022;SDS011;2530;47.990;7.866;2022-12-29T15:46:51;2.47;;;1.60;;
5022;SDS011;2530;47.990;7.866;2022-12-29T15:49:16;2.10;;;1.70;;
5022;SDS011;2530;47.990;7.866;2022-12-29T15:51:42;2.25;;;1.70;;
5022;SDS011;2530;47.990;7.866;2022-12-29T15:54:21;5.65;;;1.77;;
5022;SDS011;2530;47.990;7.866;2022-12-29T15:56:49;3.00;;;1.80;;
5022;SDS011;2530;47.990;7.866;2022-12-29T16:01:55;1.95;;;1.45;;
5022;SDS011;2530;47.990;7.866;2022-12-29T16:04:21;3.00;;;1.50;;
5022;SDS011;2530;47.990;7.866;2022-12-29T16:06:56;2.38;;;1.65;;
5022;SDS011;2530;47.990;7.866;2022-12-29T16:09:41;4.05;;;2.05;;
5022;SDS011;2530;47.990;7.866;2022-12-29T16:12:13;2.97;;;1.90;;
5022;SDS011;2530;47.990;7.866;2022-12-29T16:14:44;2.95;;;1.80;;
5022;SDS011;2530;47.990;7.866;2022-12-29T16:17:13;2.90;;;1.90;;
5022;SDS011;2530;47.990;7.866;2022-12-29T16:19:47;2.97;;;1.58;;
5022;SDS011;2530;47.990;7.866;2022-12-29T16:22:25;2.03;;;1.52;;
5022;SDS011;2530;47.990;7.866;2022-12-29T16:24:59;2.60;;;1.67;;
5022;SDS011;2530;47.990;7.866;2022-12-29T16:27:31;1.73;;;1.63;;
5022;SDS011;2530;47.990;7.866;2022-12-29T16:30:03;2.20;;;1.70;;
5022;SDS011;2530;47.990;7.866;2022-12-29T16:32:31;2.72;;;1.50;;
5022;SDS011;2530;47.990;7.866;2022-12-29T16:35:17;2.53;;;1.70;;
5022;SDS011;2530;47.990;7.866;2022-12-29T16:37:45;1.70;;;1.60;;
5022;SDS011;2530;47.990;7.866;2022-12-29T16:47:44;2.20;;;1.67;;
5022;SDS011;2530;47.990;7.866;2022-12-29T16:50:11;3.70;;;1.40;;
5022;SDS011;2530;47.990;7.866;2022-12-29T16:52:41;3.08;;;1.70;;
5022;SDS011;2530;47.990;7.866;2022-12-29T16:55:14;1.90;;;1.33;;
5022;SDS011;2530;47.990;7.866;2022-12-29T16:57:41;1.70;;;1.60;;
5022;SDS011;2530;47.990;7.866;2022-12-29T17:00:17;2.10;;;1.70;;
5022;SDS011;2530;47.990;7.866;2022-12-29T17:02:45;1.30;;;0.90;;
5022;SDS011;2530;47.990;7.866;2022-12-29T17:05:15;2.20;;;1.30;;
5022;SDS011;2530;47.990;7.866;2022-12-29T17:07:41;3.00;;;1.40;;
5022;SDS011;2530;47.990;7.866;2022-12-29T17:10:07;1.55;;;1.42;;
5022;SDS011;2530;47.990;7.866;2022-12-29T17:12:33;2.28;;;1.33;;
5022;SDS011;2530;47.990;7.866;2022-12-29T17:15:01;2.60;;;1.90;;
5022;SDS011;2530;47.990;7.866;2022-12-29T17:17:32;2.10;;;1.50;;
5022;SDS011;2530;47.990;7.866;2022-12-29T17:20:02;1.80;;;1.23;;
5022;SDS011;2530;47.990;7.866;2022-12-29T17:22:39;1.30;;;1.10;;
5022;SDS011;2530;47.990;7.866;2022-12-29T17:25:04;2.17;;;1.50;;
5022;SDS011;2530;47.990;7.866;2022-12-29T17:27:32;2.03;;;1.35;;
5022;SDS011;2530;47.990;7.866;2022-12-29T17:30:11;1.80;;;1.40;;
5022;SDS011;2530;47.990;7.866;2022-12-29T17:32:39;2.70;;;1.27;;
5022;SDS011;2530;47.990;7.866;2022-12-29T17:35:12;1.80;;;1.70;;
5022;SDS011;2530;47.990;7.866;2022-12-29T17:37:40;1.92;;;1.60;;
5022;SDS011;2530;47.990;7.866;2022-12-29T17:40:07;1.60;;;1.40;;
5022;SDS011;2530;47.990;7.866;2022-12-29T17:42:37;1.50;;;1.40;;